sensor_id;sensor_type;location;lat;lon;timestamp;temperature;humidity
3792;DHT22;1911;53.768;11.474;2022-10-17T00:00:47;11.40;99.90
3792;DHT22;1911;53.768;11.474;2022-10-17T00:03:13;11.40;99.90
3792;DHT22;1911;53.768;11.474;2022-10-17T00:05:45;11.30;99.90
3792;DHT22;1911;53.768;11.474;2022-10-17T00:08:12;11.20;99.90
3792;DHT22;1911;53.768;11.474;2022-10-17T00:10:38;11.20;99.90
3792;DHT22;1911;53.768;11.474;2022-10-17T00:13:05;11.20;99.90
3792;DHT22;1911;53.768;11.474;2022-10-17T00:15:31;11.20;99.90
3792;DHT22;1911;53.768;11.474;2022-10-17T00:17:57;11.20;99.90
3792;DHT22;1911;53.768;11.474;2022-10-17T00:20:23;11.30;99.90
3792;DHT22;1911;53.768;11.474;2022-10-17T00:22:48;11.40;99.90
3792;DHT22;1911;53.768;11.474;2022-10-17T00:25:14;11.40;99.90
3792;DHT22;1911;53.768;11.474;2022-10-17T00:27:40;11.40;99.90
3792;DHT22;1911;53.768;11.474;2022-10-17T00:30:10;11.50;99.90
3792;DHT22;1911;53.768;11.474;2022-10-17T00:32:36;11.50;99.90
3792;DHT22;1911;53.768;11.474;2022-10-17T00:35:01;11.30;99.90
3792;DHT22;1911;53.768;11.474;2022-10-17T00:37:29;11.40;99.90
3792;DHT22;1911;53.768;11.474;2022-10-17T00:39:54;11.40;99.90
3792;DHT22;1911;53.768;11.474;2022-10-17T00:42:20;11.50;99.90
3792;DHT22;1911;53.768;11.474;2022-10-17T00:47:18;11.50;99.90
3792;DHT22;1911;53.768;11.474;2022-10-17T00:49:46;11.60;99.90
3792;DHT22;1911;53.768;11.474;2022-10-17T00:52:19;11.60;99.90
3792;DHT22;1911;53.768;11.474;2022-10-17T00:54:50;11.60;99.90
3792;DHT22;1911;53.768;11.474;2022-10-17T00:57:20;11.50;99.90
3792;DHT22;1911;53.768;11.474;2022-10-17T00:59:52;11.50;99.90
3792;DHT22;1911;53.768;11.474;2022-10-17T01:02:28;11.40;99.90
3792;DHT22;1911;53.768;11.474;2022-10-17T01:08:28;11.50;99.90
3792;DHT22;1911;53.768;11.474;2022-10-17T01:11:38;11.50;99.90
3792;DHT22;1911;53.768;11.474;2022-10-17T01:14:31;11.50;99.90
3792;DHT22;1911;53.768;11.474;2022-10-17T01:17:22;11.50;99.90
3792;DHT22;1911;53.768;11.474;2022-10-17T01:25:32;11.70;99.90
3792;DHT22;1911;53.768;11.474;2022-10-17T01:31:14;11.70;99.90
3792;DHT22;1911;53.768;11.474;2022-10-17T01:34:00;11.70;99.90
3792;DHT22;1911;53.768;11.474;2022-10-17T01:36:52;11.50;99.90
3792;DHT22;1911;53.768;11.474;2022-10-17T01:44:56;11.80;99.90
3792;DHT22;1911;53.768;11.474;2022-10-17T01:47:27;11.70;99.90
3792;DHT22;1911;53.768;11.474;2022-10-17T01:49:57;11.70;99.90
3792;DHT22;1911;53.768;11.474;2022-10-17T01:52:27;11.60;99.90
3792;DHT22;1911;53.768;11.474;2022-10-17T01:54:57;11.60;99.90
3792;DHT22;1911;53.768;11.474;2022-10-17T01:57:39;11.60;99.90
3792;DHT22;1911;53.768;11.474;2022-10-17T02:00:09;11.70;99.90
3792;DHT22;1911;53.768;11.474;2022-10-17T02:02:35;11.70;99.90
3792;DHT22;1911;53.768;11.474;2022-10-17T02:05:02;11.70;99.90
3792;DHT22;1911;53.768;11.474;2022-10-17T02:07:28;11.60;99.90
3792;DHT22;1911;53.768;11.474;2022-10-17T02:09:54;11.70;99.90
3792;DHT22;1911;53.768;11.474;2022-10-17T02:15:15;11.80;99.90
3792;DHT22;1911;53.768;11.474;2022-10-17T02:20:49;11.80;99.90
3792;DHT22;1911;53.768;11.474;2022-10-17T02:23:40;11.70;99.90
3792;DHT22;1911;53.768;11.474;2022-10-17T02:26:31;11.70;99.90
3792;DHT22;1911;53.768;11.474;2022-10-17T02:29:16;11.50;99.90
3792;DHT22;1911;53.768;11.474;2022-10-17T02:31:46;11.60;99.90
3792;DHT22;1911;53.768;11.474;2022-10-17T02:34:18;11.70;99.90
3792;DHT22;1911;53.768;11.474;2022-10-17T02:36:50;11.70;99.90
3792;DHT22;1911;53.768;11.474;2022-10-17T02:39:19;11.70;99.90
3792;DHT22;1911;53.768;11.474;2022-10-17T02:41:47;11.60;99.90
3792;DHT22;1911;53.768;11.474;2022-10-17T02:44:13;11.70;99.90
3792;DHT22;1911;53.768;11.474;2022-10-17T02:46:40;11.70;99.90
3792;DHT22;1911;53.768;11.474;2022-10-17T02:49:20;11.80;99.90
3792;DHT22;1911;53.768;11.474;2022-10-17T02:52:14;11.70;99.90
3792;DHT22;1911;53.768;11.474;2022-10-17T02:54:47;11.70;99.90
3792;DHT22;1911;53.768;11.474;2022-10-17T03:00:12;11.50;99.90
3792;DHT22;1911;53.768;11.474;2022-10-17T03:02:44;11.50;99.90
3792;DHT22;1911;53.768;11.474;2022-10-17T03:05:12;11.60;99.90
3792;DHT22;1911;53.768;11.474;2022-10-17T03:07:39;11.50;99.90
3792;DHT22;1911;53.768;11.474;2022-10-17T03:10:05;11.60;99.90
3792;DHT22;1911;53.768;11.474;2022-10-17T03:12:31;11.70;99.90
3792;DHT22;1911;53.768;11.474;2022-10-17T03:14:56;11.80;99.90
3792;DHT22;1911;53.768;11.474;2022-10-17T03:17:22;11.70;99.90
3792;DHT22;1911;53.768;11.474;2022-10-17T03:19:47;11.70;99.90
3792;DHT22;1911;53.768;11.474;2022-10-17T03:22:13;11.70;99.90
3792;DHT22;1911;53.768;11.474;2022-10-17T03:24:38;11.70;99.90
3792;DHT22;1911;53.768;11.474;2022-10-17T03:27:04;11.70;99.90
3792;DHT22;1911;53.768;11.474;2022-10-17T03:29:30;11.80;99.90
3792;DHT22;1911;53.768;11.474;2022-10-17T03:31:55;11.70;99.90
3792;DHT22;1911;53.768;11.474;2022-10-17T03:34:21;11.80;99.90
3792;DHT22;1911;53.768;11.474;2022-10-17T03:36:47;11.80;99.90
3792;DHT22;1911;53.768;11.474;2022-10-17T03:39:12;11.90;99.90
3792;DHT22;1911;53.768;11.474;2022-10-17T03:41:38;11.90;99.90
3792;DHT22;1911;53.768;11.474;2022-10-17T03:44:04;11.90;99.90
3792;DHT22;1911;53.768;11.474;2022-10-17T03:46:29;11.90;99.90
3792;DHT22;1911;53.768;11.474;2022-10-17T03:48:55;11.90;99.90
3792;DHT22;1911;53.768;11.474;2022-10-17T03:51:20;11.90;99.90
3792;DHT22;1911;53.768;11.474;2022-10-17T03:53:46;11.90;99.90
3792;DHT22;1911;53.768;11.474;2022-10-17T03:56:20;12.00;99.90
3792;DHT22;1911;53.768;11.474;2022-10-17T03:58:46;11.90;99.90
3792;DHT22;1911;53.768;11.474;2022-10-17T04:01:14;12.00;99.90
3792;DHT22;1911;53.768;11.474;2022-10-17T04:03:40;11.90;99.90
3792;DHT22;1911;53.768;11.474;2022-10-17T04:06:07;11.90;99.90
3792;DHT22;1911;53.768;11.474;2022-10-17T04:08:34;11.90;99.90
3792;DHT22;1911;53.768;11.474;2022-10-17T04:11:01;11.90;99.90
3792;DHT22;1911;53.768;11.474;2022-10-17T04:13:27;12.00;99.90
3792;DHT22;1911;53.768;11.474;2022-10-17T04:15:58;12.00;99.90
3792;DHT22;1911;53.768;11.474;2022-10-17T04:18:25;11.90;99.90
3792;DHT22;1911;53.768;11.474;2022-10-17T04:20:51;11.90;99.90
3792;DHT22;1911;53.768;11.474;2022-10-17T04:23:16;11.90;99.90
3792;DHT22;1911;53.768;11.474;2022-10-17T04:25:42;11.80;99.90
3792;DHT22;1911;53.768;11.474;2022-10-17T04:28:08;11.80;99.90
3792;DHT22;1911;53.768;11.474;2022-10-17T04:30:34;11.80;99.90
3792;DHT22;1911;53.768;11.474;2022-10-17T04:32:59;11.90;99.90
3792;DHT22;1911;53.768;11.474;2022-10-17T04:35:25;11.90;99.90
3792;DHT22;1911;53.768;11.474;2022-10-17T04:37:50;11.90;99.90
3792;DHT22;1911;53.768;11.474;2022-10-17T04:40:16;11.90;99.90
3792;DHT22;1911;53.768;11.474;2022-10-17T04:42:42;11.90;99.90
3792;DHT22;1911;53.768;11.474;2022-10-17T04:45:07;12.00;99.90
3792;DHT22;1911;53.768;11.474;2022-10-17T04:47:33;12.00;99.90
3792;DHT22;1911;53.768;11.474;2022-10-17T04:49:59;12.00;99.90
3792;DHT22;1911;53.768;11.474;2022-10-17T04:52:24;12.00;99.90
3792;DHT22;1911;53.768;11.474;2022-10-17T04:54:50;12.10;99.90
3792;DHT22;1911;53.768;11.474;2022-10-17T04:57:16;12.10;99.90
3792;DHT22;1911;53.768;11.474;2022-10-17T04:59:43;12.20;99.90
3792;DHT22;1911;53.768;11.474;2022-10-17T05:02:08;12.20;99.90
3792;DHT22;1911;53.768;11.474;2022-10-17T05:04:34;12.10;99.90
3792;DHT22;1911;53.768;11.474;2022-10-17T05:07:00;12.20;99.90
3792;DHT22;1911;53.768;11.474;2022-10-17T05:09:26;12.10;99.90
3792;DHT22;1911;53.768;11.474;2022-10-17T05:11:52;12.10;99.90
3792;DHT22;1911;53.768;11.474;2022-10-17T05:14:18;12.10;99.90
3792;DHT22;1911;53.768;11.474;2022-10-17T05:16:43;12.10;99.90
3792;DHT22;1911;53.768;11.474;2022-10-17T05:19:10;12.20;99.90
3792;DHT22;1911;53.768;11.474;2022-10-17T05:21:36;12.10;99.90
3792;DHT22;1911;53.768;11.474;2022-10-17T05:24:07;12.10;99.90
3792;DHT22;1911;53.768;11.474;2022-10-17T05:26:33;12.10;99.90
3792;DHT22;1911;53.768;11.474;2022-10-17T05:29:00;12.10;99.90
3792;DHT22;1911;53.768;11.474;2022-10-17T05:31:30;12.20;99.90
3792;DHT22;1911;53.768;11.474;2022-10-17T05:34:02;12.20;99.90
3792;DHT22;1911;53.768;11.474;2022-10-17T05:36:28;12.30;99.90
3792;DHT22;1911;53.768;11.474;2022-10-17T05:38:54;12.30;99.90
3792;DHT22;1911;53.768;11.474;2022-10-17T05:41:20;12.30;99.90
3792;DHT22;1911;53.768;11.474;2022-10-17T05:43:45;12.30;99.90
3792;DHT22;1911;53.768;11.474;2022-10-17T05:46:11;12.30;99.90
3792;DHT22;1911;53.768;11.474;2022-10-17T05:48:37;12.30;99.90
3792;DHT22;1911;53.768;11.474;2022-10-17T05:51:05;12.20;99.90
3792;DHT22;1911;53.768;11.474;2022-10-17T05:53:34;12.10;99.90
3792;DHT22;1911;53.768;11.474;2022-10-17T05:56:02;12.10;99.90
3792;DHT22;1911;53.768;11.474;2022-10-17T05:58:29;12.10;99.90
3792;DHT22;1911;53.768;11.474;2022-10-17T06:00:59;12.00;99.90
3792;DHT22;1911;53.768;11.474;2022-10-17T06:03:27;12.00;99.90
3792;DHT22;1911;53.768;11.474;2022-10-17T06:05:53;11.90;99.90
3792;DHT22;1911;53.768;11.474;2022-10-17T06:08:19;12.00;99.90
3792;DHT22;1911;53.768;11.474;2022-10-17T06:10:49;12.00;99.90
3792;DHT22;1911;53.768;11.474;2022-10-17T06:13:18;12.00;99.90
3792;DHT22;1911;53.768;11.474;2022-10-17T06:15:44;12.00;99.90
3792;DHT22;1911;53.768;11.474;2022-10-17T06:18:10;12.10;99.90
3792;DHT22;1911;53.768;11.474;2022-10-17T06:20:36;12.10;99.90
3792;DHT22;1911;53.768;11.474;2022-10-17T06:23:02;12.10;99.90
3792;DHT22;1911;53.768;11.474;2022-10-17T06:25:30;12.10;99.90
3792;DHT22;1911;53.768;11.474;2022-10-17T06:27:56;12.20;99.90
3792;DHT22;1911;53.768;11.474;2022-10-17T06:30:24;12.20;99.90
3792;DHT22;1911;53.768;11.474;2022-10-17T06:32:51;12.30;99.90
3792;DHT22;1911;53.768;11.474;2022-10-17T06:35:17;12.40;99.90
3792;DHT22;1911;53.768;11.474;2022-10-17T06:37:43;12.40;99.90
3792;DHT22;1911;53.768;11.474;2022-10-17T06:40:09;12.50;99.90
3792;DHT22;1911;53.768;11.474;2022-10-17T06:42:37;12.60;99.90
3792;DHT22;1911;53.768;11.474;2022-10-17T06:45:03;12.70;99.90
3792;DHT22;1911;53.768;11.474;2022-10-17T06:47:29;12.70;99.90
3792;DHT22;1911;53.768;11.474;2022-10-17T06:49:54;12.80;99.90
3792;DHT22;1911;53.768;11.474;2022-10-17T06:52:20;12.80;99.90
3792;DHT22;1911;53.768;11.474;2022-10-17T06:54:46;12.80;99.90
3792;DHT22;1911;53.768;11.474;2022-10-17T06:57:11;12.90;99.90
3792;DHT22;1911;53.768;11.474;2022-10-17T06:59:37;12.90;99.90
3792;DHT22;1911;53.768;11.474;2022-10-17T07:02:03;12.90;99.90
3792;DHT22;1911;53.768;11.474;2022-10-17T07:04:29;13.00;99.90
3792;DHT22;1911;53.768;11.474;2022-10-17T07:06:55;13.20;99.90
3792;DHT22;1911;53.768;11.474;2022-10-17T07:09:21;13.20;99.90
3792;DHT22;1911;53.768;11.474;2022-10-17T07:11:47;13.40;99.90
3792;DHT22;1911;53.768;11.474;2022-10-17T07:14:13;13.40;99.90
3792;DHT22;1911;53.768;11.474;2022-10-17T07:16:41;13.30;99.90
3792;DHT22;1911;53.768;11.474;2022-10-17T07:19:07;13.30;99.90
3792;DHT22;1911;53.768;11.474;2022-10-17T07:21:32;13.50;99.90
3792;DHT22;1911;53.768;11.474;2022-10-17T07:23:58;13.70;99.90
3792;DHT22;1911;53.768;11.474;2022-10-17T07:26:23;13.70;99.90
3792;DHT22;1911;53.768;11.474;2022-10-17T07:28:52;13.70;99.90
3792;DHT22;1911;53.768;11.474;2022-10-17T07:31:20;13.50;99.90
3792;DHT22;1911;53.768;11.474;2022-10-17T07:33:47;13.50;99.90
3792;DHT22;1911;53.768;11.474;2022-10-17T07:36:14;13.50;99.90
3792;DHT22;1911;53.768;11.474;2022-10-17T07:38:40;13.40;99.90
3792;DHT22;1911;53.768;11.474;2022-10-17T07:41:07;13.40;99.90
3792;DHT22;1911;53.768;11.474;2022-10-17T07:43:34;13.40;99.90
3792;DHT22;1911;53.768;11.474;2022-10-17T07:46:01;13.60;99.90
3792;DHT22;1911;53.768;11.474;2022-10-17T07:48:29;13.60;99.90
3792;DHT22;1911;53.768;11.474;2022-10-17T07:50:54;13.60;99.90
3792;DHT22;1911;53.768;11.474;2022-10-17T07:53:20;13.70;99.90
3792;DHT22;1911;53.768;11.474;2022-10-17T07:55:46;13.80;99.90
3792;DHT22;1911;53.768;11.474;2022-10-17T07:58:13;13.80;99.90
3792;DHT22;1911;53.768;11.474;2022-10-17T08:00:39;13.90;99.90
3792;DHT22;1911;53.768;11.474;2022-10-17T08:03:05;13.90;99.90
3792;DHT22;1911;53.768;11.474;2022-10-17T08:05:31;13.90;99.90
3792;DHT22;1911;53.768;11.474;2022-10-17T08:07:57;13.90;99.90
3792;DHT22;1911;53.768;11.474;2022-10-17T08:10:22;13.90;99.90
3792;DHT22;1911;53.768;11.474;2022-10-17T08:12:54;13.90;99.90
3792;DHT22;1911;53.768;11.474;2022-10-17T08:15:21;14.00;99.90
3792;DHT22;1911;53.768;11.474;2022-10-17T08:17:47;14.00;99.90
3792;DHT22;1911;53.768;11.474;2022-10-17T08:20:12;14.10;99.90
3792;DHT22;1911;53.768;11.474;2022-10-17T08:22:38;14.10;99.90
3792;DHT22;1911;53.768;11.474;2022-10-17T08:25:04;14.20;99.90
3792;DHT22;1911;53.768;11.474;2022-10-17T08:27:32;14.30;99.90
3792;DHT22;1911;53.768;11.474;2022-10-17T08:29:58;14.30;99.90
3792;DHT22;1911;53.768;11.474;2022-10-17T08:32:25;14.40;99.90
3792;DHT22;1911;53.768;11.474;2022-10-17T08:34:52;14.50;99.90
3792;DHT22;1911;53.768;11.474;2022-10-17T08:37:18;14.50;99.90
3792;DHT22;1911;53.768;11.474;2022-10-17T08:39:44;14.60;99.90
3792;DHT22;1911;53.768;11.474;2022-10-17T08:47:37;14.90;99.90
3792;DHT22;1911;53.768;11.474;2022-10-17T08:50:24;15.00;99.90
3792;DHT22;1911;53.768;11.474;2022-10-17T08:52:54;15.20;99.90
3792;DHT22;1911;53.768;11.474;2022-10-17T08:55:32;15.40;99.90
3792;DHT22;1911;53.768;11.474;2022-10-17T08:58:00;15.50;99.90
3792;DHT22;1911;53.768;11.474;2022-10-17T09:00:29;15.70;99.90
3792;DHT22;1911;53.768;11.474;2022-10-17T09:03:21;15.90;99.90
3792;DHT22;1911;53.768;11.474;2022-10-17T09:06:03;16.10;99.90
3792;DHT22;1911;53.768;11.474;2022-10-17T09:16:53;16.90;99.90
3792;DHT22;1911;53.768;11.474;2022-10-17T09:19:24;16.80;99.90
3792;DHT22;1911;53.768;11.474;2022-10-17T09:22:12;16.80;99.90
3792;DHT22;1911;53.768;11.474;2022-10-17T09:24:54;16.60;99.90
3792;DHT22;1911;53.768;11.474;2022-10-17T09:27:41;16.70;99.90
3792;DHT22;1911;53.768;11.474;2022-10-17T09:32:53;17.10;99.90
3792;DHT22;1911;53.768;11.474;2022-10-17T09:35:20;17.30;99.90
3792;DHT22;1911;53.768;11.474;2022-10-17T09:37:48;17.40;99.90
3792;DHT22;1911;53.768;11.474;2022-10-17T09:40:31;17.30;99.90
3792;DHT22;1911;53.768;11.474;2022-10-17T09:43:00;17.30;99.90
3792;DHT22;1911;53.768;11.474;2022-10-17T09:45:28;17.30;99.90
3792;DHT22;1911;53.768;11.474;2022-10-17T09:50:34;17.40;99.90
3792;DHT22;1911;53.768;11.474;2022-10-17T09:53:04;17.50;99.90
3792;DHT22;1911;53.768;11.474;2022-10-17T09:55:44;17.60;99.90
3792;DHT22;1911;53.768;11.474;2022-10-17T09:58:12;17.70;99.90
3792;DHT22;1911;53.768;11.474;2022-10-17T10:00:43;17.90;99.90
3792;DHT22;1911;53.768;11.474;2022-10-17T10:03:13;17.70;99.90
3792;DHT22;1911;53.768;11.474;2022-10-17T10:05:41;17.70;99.90
3792;DHT22;1911;53.768;11.474;2022-10-17T10:08:16;17.90;99.90
3792;DHT22;1911;53.768;11.474;2022-10-17T10:10:42;18.20;99.90
3792;DHT22;1911;53.768;11.474;2022-10-17T10:15:49;18.60;99.90
3792;DHT22;1911;53.768;11.474;2022-10-17T10:23:37;18.80;1.00
3792;DHT22;1911;53.768;11.474;2022-10-17T10:26:17;18.70;1.00
3792;DHT22;1911;53.768;11.474;2022-10-17T10:28:54;18.60;1.00
3792;DHT22;1911;53.768;11.474;2022-10-17T10:31:31;18.80;1.00
3792;DHT22;1911;53.768;11.474;2022-10-17T10:33:59;18.80;1.00
3792;DHT22;1911;53.768;11.474;2022-10-17T10:36:51;18.90;1.00
3792;DHT22;1911;53.768;11.474;2022-10-17T10:39:31;18.90;1.00
3792;DHT22;1911;53.768;11.474;2022-10-17T10:41:59;18.80;1.00
3792;DHT22;1911;53.768;11.474;2022-10-17T10:44:28;18.70;5.60
3792;DHT22;1911;53.768;11.474;2022-10-17T10:49:38;18.50;67.30
3792;DHT22;1911;53.768;11.474;2022-10-17T10:52:04;18.50;66.30
3792;DHT22;1911;53.768;11.474;2022-10-17T10:54:34;18.50;75.60
3792;DHT22;1911;53.768;11.474;2022-10-17T10:57:04;18.50;99.90
3792;DHT22;1911;53.768;11.474;2022-10-17T10:59:54;18.60;96.40
3792;DHT22;1911;53.768;11.474;2022-10-17T11:02:35;18.70;65.40
3792;DHT22;1911;53.768;11.474;2022-10-17T11:05:16;18.70;43.20
3792;DHT22;1911;53.768;11.474;2022-10-17T11:10:50;18.80;94.70
3792;DHT22;1911;53.768;11.474;2022-10-17T11:13:25;19.00;64.40
3792;DHT22;1911;53.768;11.474;2022-10-17T11:19:03;19.10;1.00
3792;DHT22;1911;53.768;11.474;2022-10-17T11:21:47;19.10;1.00
3792;DHT22;1911;53.768;11.474;2022-10-17T11:24:29;19.00;1.00
3792;DHT22;1911;53.768;11.474;2022-10-17T11:27:00;19.00;1.00
3792;DHT22;1911;53.768;11.474;2022-10-17T11:29:31;19.10;1.00
3792;DHT22;1911;53.768;11.474;2022-10-17T11:32:02;19.20;1.00
3792;DHT22;1911;53.768;11.474;2022-10-17T11:34:31;19.30;1.00
3792;DHT22;1911;53.768;11.474;2022-10-17T11:37:04;19.40;1.00
3792;DHT22;1911;53.768;11.474;2022-10-17T11:40:20;19.50;1.00
3792;DHT22;1911;53.768;11.474;2022-10-17T11:42:29;19.50;1.00
3792;DHT22;1911;53.768;11.474;2022-10-17T11:45:01;19.40;1.00
3792;DHT22;1911;53.768;11.474;2022-10-17T11:50:25;19.20;1.00
3792;DHT22;1911;53.768;11.474;2022-10-17T11:53:01;19.20;1.00
3792;DHT22;1911;53.768;11.474;2022-10-17T11:55:29;19.00;1.00
3792;DHT22;1911;53.768;11.474;2022-10-17T12:08:03;18.30;99.90
3792;DHT22;1911;53.768;11.474;2022-10-17T12:18:44;18.20;99.90
3792;DHT22;1911;53.768;11.474;2022-10-17T12:21:10;18.20;99.90
3792;DHT22;1911;53.768;11.474;2022-10-17T12:23:36;18.30;99.90
3792;DHT22;1911;53.768;11.474;2022-10-17T12:26:07;18.40;99.90
3792;DHT22;1911;53.768;11.474;2022-10-17T12:31:08;18.60;99.90
3792;DHT22;1911;53.768;11.474;2022-10-17T12:47:37;18.70;1.00
3792;DHT22;1911;53.768;11.474;2022-10-17T12:49:39;18.60;1.40
3792;DHT22;1911;53.768;11.474;2022-10-17T12:52:16;18.50;93.50
3792;DHT22;1911;53.768;11.474;2022-10-17T12:55:08;18.50;99.90
3792;DHT22;1911;53.768;11.474;2022-10-17T12:58:04;18.50;98.40
3792;DHT22;1911;53.768;11.474;2022-10-17T13:03:20;18.50;99.90
3792;DHT22;1911;53.768;11.474;2022-10-17T13:05:52;18.50;99.90
3792;DHT22;1911;53.768;11.474;2022-10-17T13:08:24;18.40;99.90
3792;DHT22;1911;53.768;11.474;2022-10-17T13:10:53;18.40;99.90
3792;DHT22;1911;53.768;11.474;2022-10-17T13:15:58;18.20;99.90
3792;DHT22;1911;53.768;11.474;2022-10-17T13:18:27;18.20;99.90
3792;DHT22;1911;53.768;11.474;2022-10-17T13:21:16;18.20;99.90
3792;DHT22;1911;53.768;11.474;2022-10-17T13:23:41;18.10;99.90
3792;DHT22;1911;53.768;11.474;2022-10-17T13:26:22;18.20;99.90
3792;DHT22;1911;53.768;11.474;2022-10-17T13:31:31;18.20;99.90
3792;DHT22;1911;53.768;11.474;2022-10-17T13:33:59;18.40;99.90
3792;DHT22;1911;53.768;11.474;2022-10-17T13:36:26;18.40;98.50
3792;DHT22;1911;53.768;11.474;2022-10-17T13:38:57;18.30;94.80
3792;DHT22;1911;53.768;11.474;2022-10-17T13:41:28;18.10;99.90
3792;DHT22;1911;53.768;11.474;2022-10-17T13:44:02;17.90;99.90
3792;DHT22;1911;53.768;11.474;2022-10-17T13:46:37;17.80;99.90
3792;DHT22;1911;53.768;11.474;2022-10-17T13:51:49;17.70;99.90
3792;DHT22;1911;53.768;11.474;2022-10-17T13:54:24;17.70;99.90
3792;DHT22;1911;53.768;11.474;2022-10-17T13:56:58;17.70;99.90
3792;DHT22;1911;53.768;11.474;2022-10-17T13:59:38;17.80;99.90
3792;DHT22;1911;53.768;11.474;2022-10-17T14:36:33;17.80;99.90
3792;DHT22;1911;53.768;11.474;2022-10-17T14:49:33;17.90;99.90
3792;DHT22;1911;53.768;11.474;2022-10-17T14:56:21;17.90;99.90
3792;DHT22;1911;53.768;11.474;2022-10-17T15:15:51;17.70;99.90
3792;DHT22;1911;53.768;11.474;2022-10-17T15:24:57;17.50;99.90
3792;DHT22;1911;53.768;11.474;2022-10-17T16:16:32;17.00;99.90
3792;DHT22;1911;53.768;11.474;2022-10-17T17:28:42;17.00;99.90
3792;DHT22;1911;53.768;11.474;2022-10-17T18:30:28;16.50;99.90
3792;DHT22;1911;53.768;11.474;2022-10-17T20:14:18;16.30;99.90
3792;DHT22;1911;53.768;11.474;2022-10-17T20:16:44;16.30;99.90
3792;DHT22;1911;53.768;11.474;2022-10-17T20:19:14;16.30;99.90
3792;DHT22;1911;53.768;11.474;2022-10-17T20:21:41;16.30;99.90
3792;DHT22;1911;53.768;11.474;2022-10-17T20:24:10;16.30;99.90
3792;DHT22;1911;53.768;11.474;2022-10-17T20:26:36;16.30;99.90
3792;DHT22;1911;53.768;11.474;2022-10-17T20:29:03;16.30;99.90
3792;DHT22;1911;53.768;11.474;2022-10-17T20:31:29;16.30;99.90
3792;DHT22;1911;53.768;11.474;2022-10-17T20:33:56;16.20;99.90
3792;DHT22;1911;53.768;11.474;2022-10-17T20:36:22;16.10;99.90
3792;DHT22;1911;53.768;11.474;2022-10-17T20:38:53;16.10;99.90
3792;DHT22;1911;53.768;11.474;2022-10-17T20:41:18;16.10;99.90
3792;DHT22;1911;53.768;11.474;2022-10-17T20:43:44;16.10;99.90
3792;DHT22;1911;53.768;11.474;2022-10-17T20:46:17;16.10;99.90
3792;DHT22;1911;53.768;11.474;2022-10-17T20:48:43;16.10;99.90
3792;DHT22;1911;53.768;11.474;2022-10-17T20:51:09;16.10;99.90
3792;DHT22;1911;53.768;11.474;2022-10-17T20:53:35;16.10;99.90
3792;DHT22;1911;53.768;11.474;2022-10-17T20:56:24;16.10;99.90
3792;DHT22;1911;53.768;11.474;2022-10-17T20:58:58;16.10;99.90
3792;DHT22;1911;53.768;11.474;2022-10-17T21:01:24;16.10;99.90
3792;DHT22;1911;53.768;11.474;2022-10-17T21:03:50;16.20;99.90
3792;DHT22;1911;53.768;11.474;2022-10-17T21:06:16;16.20;99.90
3792;DHT22;1911;53.768;11.474;2022-10-17T21:08:43;16.20;99.90
3792;DHT22;1911;53.768;11.474;2022-10-17T21:11:19;16.20;99.90
3792;DHT22;1911;53.768;11.474;2022-10-17T21:13:46;16.20;99.90
3792;DHT22;1911;53.768;11.474;2022-10-17T21:16:15;16.20;99.90
3792;DHT22;1911;53.768;11.474;2022-10-17T21:18:41;16.30;99.90
3792;DHT22;1911;53.768;11.474;2022-10-17T21:21:16;16.30;99.90
3792;DHT22;1911;53.768;11.474;2022-10-17T21:23:43;16.30;99.90
3792;DHT22;1911;53.768;11.474;2022-10-17T21:26:10;16.20;99.90
3792;DHT22;1911;53.768;11.474;2022-10-17T21:28:41;16.30;99.90
3792;DHT22;1911;53.768;11.474;2022-10-17T21:33:40;16.20;99.90
3792;DHT22;1911;53.768;11.474;2022-10-17T21:36:07;16.20;99.90
3792;DHT22;1911;53.768;11.474;2022-10-17T21:38:34;16.30;99.90
3792;DHT22;1911;53.768;11.474;2022-10-17T21:41:01;16.20;99.90
3792;DHT22;1911;53.768;11.474;2022-10-17T21:43:27;16.20;99.90
3792;DHT22;1911;53.768;11.474;2022-10-17T21:45:52;16.20;99.90
3792;DHT22;1911;53.768;11.474;2022-10-17T21:48:18;16.10;99.90
3792;DHT22;1911;53.768;11.474;2022-10-17T21:50:43;16.10;99.90
3792;DHT22;1911;53.768;11.474;2022-10-17T21:53:09;16.10;99.90
3792;DHT22;1911;53.768;11.474;2022-10-17T21:55:35;16.00;99.90
3792;DHT22;1911;53.768;11.474;2022-10-17T21:58:02;15.90;99.90
3792;DHT22;1911;53.768;11.474;2022-10-17T22:00:28;15.90;99.90
3792;DHT22;1911;53.768;11.474;2022-10-17T22:02:53;15.90;99.90
3792;DHT22;1911;53.768;11.474;2022-10-17T22:05:19;15.80;99.90
3792;DHT22;1911;53.768;11.474;2022-10-17T22:07:45;15.80;99.90
3792;DHT22;1911;53.768;11.474;2022-10-17T22:10:10;15.80;99.90
3792;DHT22;1911;53.768;11.474;2022-10-17T22:12:36;15.70;99.90
3792;DHT22;1911;53.768;11.474;2022-10-17T22:15:01;15.70;99.90
3792;DHT22;1911;53.768;11.474;2022-10-17T22:17:27;15.70;99.90
3792;DHT22;1911;53.768;11.474;2022-10-17T22:19:53;15.70;99.90
3792;DHT22;1911;53.768;11.474;2022-10-17T22:22:18;15.60;99.90
3792;DHT22;1911;53.768;11.474;2022-10-17T22:24:44;15.60;99.90
3792;DHT22;1911;53.768;11.474;2022-10-17T22:27:09;15.60;99.90
3792;DHT22;1911;53.768;11.474;2022-10-17T22:29:35;15.60;99.90
3792;DHT22;1911;53.768;11.474;2022-10-17T22:32:01;15.50;99.90
3792;DHT22;1911;53.768;11.474;2022-10-17T22:34:26;15.50;99.90
3792;DHT22;1911;53.768;11.474;2022-10-17T22:36:52;15.40;99.90
3792;DHT22;1911;53.768;11.474;2022-10-17T22:39:18;15.40;99.90
3792;DHT22;1911;53.768;11.474;2022-10-17T22:41:43;15.30;99.90
3792;DHT22;1911;53.768;11.474;2022-10-17T22:44:09;15.30;99.90
3792;DHT22;1911;53.768;11.474;2022-10-17T22:46:35;15.30;99.90
3792;DHT22;1911;53.768;11.474;2022-10-17T22:49:00;15.30;99.90
3792;DHT22;1911;53.768;11.474;2022-10-17T22:51:26;15.20;99.90
3792;DHT22;1911;53.768;11.474;2022-10-17T22:53:52;15.20;99.90
3792;DHT22;1911;53.768;11.474;2022-10-17T22:56:19;15.20;99.90
3792;DHT22;1911;53.768;11.474;2022-10-17T22:58:45;15.10;99.90
3792;DHT22;1911;53.768;11.474;2022-10-17T23:01:14;15.10;99.90
3792;DHT22;1911;53.768;11.474;2022-10-17T23:03:40;15.00;99.90
3792;DHT22;1911;53.768;11.474;2022-10-17T23:06:06;15.10;99.90
3792;DHT22;1911;53.768;11.474;2022-10-17T23:08:31;15.00;99.90
3792;DHT22;1911;53.768;11.474;2022-10-17T23:10:57;15.00;99.90
3792;DHT22;1911;53.768;11.474;2022-10-17T23:13:23;15.10;99.90
3792;DHT22;1911;53.768;11.474;2022-10-17T23:15:50;15.00;99.90
3792;DHT22;1911;53.768;11.474;2022-10-17T23:18:17;15.00;99.90
3792;DHT22;1911;53.768;11.474;2022-10-17T23:20:43;15.00;99.90
3792;DHT22;1911;53.768;11.474;2022-10-17T23:23:08;15.00;99.90
3792;DHT22;1911;53.768;11.474;2022-10-17T23:25:34;15.00;99.90
3792;DHT22;1911;53.768;11.474;2022-10-17T23:28:00;15.00;99.90
3792;DHT22;1911;53.768;11.474;2022-10-17T23:30:26;15.00;99.90
3792;DHT22;1911;53.768;11.474;2022-10-17T23:32:52;15.00;99.90
3792;DHT22;1911;53.768;11.474;2022-10-17T23:35:18;15.00;99.90
3792;DHT22;1911;53.768;11.474;2022-10-17T23:37:43;14.90;99.90
3792;DHT22;1911;53.768;11.474;2022-10-17T23:40:09;14.90;99.90
3792;DHT22;1911;53.768;11.474;2022-10-17T23:42:35;14.90;99.90
3792;DHT22;1911;53.768;11.474;2022-10-17T23:45:01;14.90;99.90
3792;DHT22;1911;53.768;11.474;2022-10-17T23:47:27;14.90;99.90